Time;durP1;ratioP1;P1;durP2;ratioP2;P2;SDS_P1;SDS_P2;PMS_P1;PMS_P2;Temp;Humidity;BMP_temperature;BMP_pressure;BME280_temperature;BME280_humidity;BME280_pressure;Samples;Min_cycle;Max_cycle;Signal;HPM_P1;HPM_P2
2021/09/10 04:01:25;;;;;;;22.80;19.87;;;18.10;99.90;;;;;;5526618;23;20642;-68
2021/09/10 04:03:52;;;;;;;21.40;19.10;;;18.10;99.90;;;;;;4970631;28;20467;-69
2021/09/10 04:06:18;;;;;;;19.30;17.40;;;18.10;99.90;;;;;;4973318;28;20963;-68
2021/09/10 04:08:45;;;;;;;21.20;19.00;;;18.10;99.90;;;;;;4956416;28;20893;-68
2021/09/10 04:11:12;;;;;;;20.77;18.77;;;18.10;99.90;;;;;;4962438;28;20478;-68
2021/09/10 04:13:38;;;;;;;22.00;20.00;;;18.10;99.90;;;;;;4957418;28;20457;-68
2021/09/10 04:16:05;;;;;;;19.87;18.00;;;18.10;99.90;;;;;;4957350;28;20499;-68
2021/09/10 04:18:33;;;;;;;20.30;18.10;;;18.10;99.90;;;;;;4971811;28;20515;-68
2021/09/10 04:21:00;;;;;;;19.87;17.77;;;18.10;99.90;;;;;;4972419;28;20495;-68
2021/09/10 04:23:27;;;;;;;21.77;19.47;;;18.10;99.90;;;;;;4972083;28;20467;-68
2021/09/10 04:25:53;;;;;;;22.47;20.20;;;18.10;99.90;;;;;;4973369;28;20523;-69
2021/09/10 04:28:20;;;;;;;21.47;19.27;;;18.10;99.90;;;;;;4961511;28;20464;-68
2021/09/10 04:30:47;;;;;;;19.93;18.07;;;18.10;99.90;;;;;;4973453;28;20541;-68
2021/09/10 04:33:13;;;;;;;21.13;19.07;;;18.10;99.90;;;;;;4972473;28;20456;-69
2021/09/10 04:35:41;;;;;;;20.73;18.63;;;18.10;99.90;;;;;;4965847;28;20468;-69
2021/09/10 04:38:08;;;;;;;20.23;18.30;;;18.10;99.90;;;;;;4960363;28;20954;-69
2021/09/10 04:40:34;;;;;;;20.33;18.03;;;18.10;99.90;;;;;;4953942;28;20492;-69
2021/09/10 04:43:01;;;;;;;19.70;17.77;;;18.20;99.90;;;;;;4967260;28;20460;-69
2021/09/10 04:45:28;;;;;;;20.17;18.23;;;18.10;99.90;;;;;;4973494;28;20470;-68
2021/09/10 04:47:54;;;;;;;22.93;19.50;;;18.10;99.90;;;;;;4969712;28;20531;-68
2021/09/10 04:50:21;;;;;;;22.73;19.63;;;18.10;99.90;;;;;;4957218;28;20496;-67
2021/09/10 04:52:49;;;;;;;22.27;20.03;;;18.10;99.90;;;;;;4968070;28;20490;-67
2021/09/10 04:55:16;;;;;;;22.40;19.23;;;18.10;99.90;;;;;;4977166;28;20542;-67
2021/09/10 04:57:43;;;;;;;25.17;19.93;;;18.10;99.90;;;;;;4972693;28;20457;-67
2021/09/10 05:00:11;;;;;;;22.20;19.53;;;18.10;99.90;;;;;;4971212;28;20456;-68
2021/09/10 05:02:37;;;;;;;22.00;19.73;;;18.10;99.90;;;;;;4973772;28;20487;-67
2021/09/10 05:05:05;;;;;;;23.43;20.83;;;18.10;99.90;;;;;;4976361;28;20947;-67
2021/09/10 05:07:32;;;;;;;26.07;20.80;;;18.20;99.90;;;;;;4960504;28;20464;-67
2021/09/10 05:10:00;;;;;;;23.27;20.87;;;18.20;99.90;;;;;;4973578;28;20817;-68
2021/09/10 05:12:26;;;;;;;22.60;20.27;;;18.20;99.90;;;;;;4975868;28;21187;-66
2021/09/10 05:14:53;;;;;;;21.77;19.47;;;18.20;99.90;;;;;;4976329;28;20503;-69
2021/09/10 05:17:20;;;;;;;25.03;21.27;;;18.30;99.90;;;;;;4962887;28;20460;-67
2021/09/10 05:19:47;;;;;;;23.17;20.77;;;18.30;99.90;;;;;;4969404;28;20467;-67
2021/09/10 05:22:14;;;;;;;23.07;20.57;;;18.30;99.90;;;;;;4975553;28;20492;-67
2021/09/10 05:24:41;;;;;;;24.07;20.90;;;18.30;99.90;;;;;;4971605;28;20532;-69
2021/09/10 05:27:09;;;;;;;26.70;20.60;;;18.30;99.90;;;;;;4965109;28;20899;-68
2021/09/10 05:29:35;;;;;;;24.13;21.13;;;18.30;99.90;;;;;;4966987;28;20526;-68
2021/09/10 05:32:02;;;;;;;24.00;19.90;;;18.40;99.90;;;;;;4974733;28;20534;-69
2021/09/10 05:34:29;;;;;;;24.07;20.23;;;18.40;99.90;;;;;;4956183;28;20515;-69
2021/09/10 05:36:55;;;;;;;22.43;19.87;;;18.40;99.90;;;;;;4964939;28;20502;-68
2021/09/10 05:39:22;;;;;;;22.03;19.73;;;18.50;99.90;;;;;;4975823;28;20550;-68
2021/09/10 05:41:49;;;;;;;26.43;20.87;;;18.50;99.90;;;;;;4971942;28;20485;-68
2021/09/10 05:44:18;;;;;;;21.40;19.03;;;18.60;99.90;;;;;;4968794;28;20463;-68
2021/09/10 05:46:44;;;;;;;21.03;18.83;;;18.60;99.90;;;;;;4957763;28;20490;-68
2021/09/10 05:49:11;;;;;;;20.67;18.67;;;18.70;99.90;;;;;;4975178;28;20491;-68
2021/09/10 05:51:38;;;;;;;21.47;19.20;;;18.70;99.90;;;;;;4975367;28;20557;-68
2021/09/10 05:54:05;;;;;;;23.60;20.73;;;18.80;99.90;;;;;;4975131;28;20464;-68
2021/09/10 05:56:31;;;;;;;25.23;21.87;;;18.90;99.90;;;;;;4975208;28;20974;-68
2021/09/10 05:58:58;;;;;;;22.60;20.30;;;18.90;99.90;;;;;;4972181;28;20456;-68
2021/09/10 06:01:26;;;;;;;24.80;21.10;;;19.00;99.90;;;;;;4968200;28;20495;-68
2021/09/10 06:03:53;;;;;;;23.47;21.10;;;19.00;99.90;;;;;;4974441;28;20519;-69
2021/09/10 06:06:19;;;;;;;22.00;19.90;;;19.00;99.90;;;;;;4963386;28;20476;-68
2021/09/10 06:08:46;;;;;;;22.30;20.03;;;19.10;99.90;;;;;;4975511;28;20948;-68
2021/09/10 06:11:13;;;;;;;23.47;21.07;;;19.10;99.90;;;;;;4964429;28;20488;-68
2021/09/10 06:13:39;;;;;;;26.33;20.23;;;19.20;99.90;;;;;;4973922;28;20471;-68
2021/09/10 06:16:06;;;;;;;25.97;22.40;;;19.20;99.90;;;;;;4973039;28;20460;-68
2021/09/10 06:18:34;;;;;;;23.40;21.00;;;19.20;99.90;;;;;;4975402;28;20500;-68
2021/09/10 06:21:03;;;;;;;23.93;21.53;;;19.20;99.90;;;;;;4964582;28;20785;-68
2021/09/10 06:23:29;;;;;;;25.03;22.03;;;19.20;99.90;;;;;;4975038;28;20554;-68
2021/09/10 06:25:56;;;;;;;27.03;22.20;;;19.30;99.90;;;;;;4960498;28;20521;-69
2021/09/10 06:28:23;;;;;;;24.87;22.30;;;19.40;99.90;;;;;;4955577;28;20469;-69
2021/09/10 06:30:49;;;;;;;23.37;20.97;;;19.50;99.90;;;;;;4969719;28;20480;-69
2021/09/10 06:33:16;;;;;;;20.80;18.60;;;19.60;99.90;;;;;;4974596;28;20463;-69
2021/09/10 06:35:44;;;;;;;22.03;19.87;;;19.70;99.90;;;;;;4973401;28;20495;-68
2021/09/10 06:38:11;;;;;;;20.33;17.43;;;19.90;99.90;;;;;;4975253;28;20472;-68
2021/09/10 06:40:38;;;;;;;19.50;17.67;;;20.10;99.90;;;;;;4974695;28;20488;-68
2021/09/10 06:43:04;;;;;;;19.77;17.77;;;20.30;99.90;;;;;;4974621;28;21006;-68
2021/09/10 06:45:31;;;;;;;20.00;18.10;;;20.40;99.90;;;;;;4965355;28;20464;-69
2021/09/10 06:47:59;;;;;;;19.67;17.67;;;20.50;99.90;;;;;;4973644;28;20495;-69
2021/09/10 06:50:25;;;;;;;22.33;19.80;;;20.60;99.90;;;;;;4974299;28;20463;-68
2021/09/10 06:52:53;;;;;;;23.00;19.37;;;20.80;99.90;;;;;;4976128;28;20468;-70
2021/09/10 06:55:20;;;;;;;20.80;18.63;;;20.90;99.90;;;;;;4976572;28;20464;-70
2021/09/10 06:57:47;;;;;;;20.07;17.33;;;21.10;99.90;;;;;;4978434;28;20769;-71
2021/09/10 07:00:15;;;;;;;20.73;18.83;;;21.30;99.90;;;;;;4961860;28;21000;-72
2021/09/10 07:02:42;;;;;;;22.13;19.97;;;21.50;99.90;;;;;;4963577;28;20519;-71
2021/09/10 07:05:09;;;;;;;21.53;19.13;;;21.50;99.90;;;;;;4974869;28;20550;-71
2021/09/10 07:07:36;;;;;;;20.73;18.53;;;21.50;99.90;;;;;;4966202;28;20464;-70
2021/09/10 07:10:05;;;;;;;20.77;18.87;;;21.80;99.90;;;;;;4977796;28;20482;-71
2021/09/10 07:12:32;;;;;;;19.83;18.03;;;21.80;99.90;;;;;;4962542;28;20522;-71
2021/09/10 07:14:58;;;;;;;22.47;20.17;;;22.00;99.90;;;;;;4976387;28;20514;-70
2021/09/10 07:17:25;;;;;;;21.87;19.70;;;22.10;99.90;;;;;;4974805;28;20456;-71
2021/09/10 07:19:52;;;;;;;19.03;17.23;;;22.10;99.90;;;;;;4975265;28;20575;-70
2021/09/10 07:22:18;;;;;;;20.43;18.27;;;22.10;99.90;;;;;;4975417;28;20500;-70
2021/09/10 07:24:45;;;;;;;20.67;18.00;;;22.00;99.90;;;;;;4974094;28;20460;-70
2021/09/10 07:27:13;;;;;;;18.30;16.53;;;21.90;99.90;;;;;;4974309;28;20468;-70
2021/09/10 07:29:40;;;;;;;17.67;15.97;;;21.70;99.90;;;;;;4955388;29;20536;-70
2021/09/10 07:32:07;;;;;;;17.13;15.40;;;21.60;99.90;;;;;;4965961;28;20514;-70
2021/09/10 07:34:34;;;;;;;19.03;17.13;;;21.40;99.90;;;;;;4973003;28;20471;-75
2021/09/10 07:37:00;;;;;;;17.20;15.50;;;21.20;99.90;;;;;;4965492;28;20467;-70
2021/09/10 07:39:27;;;;;;;16.37;14.67;;;21.10;99.90;;;;;;4974076;28;20798;-70
2021/09/10 07:41:54;;;;;;;16.17;14.50;;;21.00;99.90;;;;;;4966972;28;20583;-70
2021/09/10 07:44:22;;;;;;;17.07;15.43;;;20.90;99.90;;;;;;4960357;28;20464;-70
2021/09/10 07:46:51;;;;;;;18.57;16.80;;;20.80;99.90;;;;;;4973141;28;20944;-69
2021/09/10 07:49:19;;;;;;;22.00;18.77;;;20.80;99.90;;;;;;4973007;28;20468;-70
2021/09/10 07:51:45;;;;;;;20.63;18.63;;;20.80;99.90;;;;;;4973361;28;20546;-69
2021/09/10 07:54:12;;;;;;;22.60;20.20;;;20.70;99.90;;;;;;4973414;28;20480;-70
2021/09/10 07:56:39;;;;;;;22.50;20.17;;;20.60;99.90;;;;;;4973452;28;20467;-69
2021/09/10 07:59:06;;;;;;;23.20;20.30;;;20.60;99.90;;;;;;4973422;28;20462;-70
2021/09/10 08:01:34;;;;;;;24.47;21.53;;;20.50;99.90;;;;;;4973886;28;20496;-69
2021/09/10 08:04:01;;;;;;;26.73;23.83;;;20.50;99.90;;;;;;4972673;28;20492;-70
2021/09/10 08:08:43;;;;;;;26.47;23.60;;;20.40;99.90;;;;;;5089229;27;20558;-70
2021/09/10 08:11:10;;;;;;;29.30;23.40;;;20.30;99.90;;;;;;5077791;28;20467;-70
2021/09/10 08:13:36;;;;;;;27.27;23.93;;;20.20;99.90;;;;;;5070865;28;20454;-70
2021/09/10 08:16:04;;;;;;;29.77;26.40;;;20.20;99.90;;;;;;5068399;28;20467;-70
2021/09/10 08:18:30;;;;;;;34.47;27.70;;;20.10;99.90;;;;;;5071042;28;20479;-70
2021/09/10 08:20:57;;;;;;;36.53;28.17;;;20.00;99.90;;;;;;5080496;28;20483;-70
2021/09/10 08:23:24;;;;;;;35.70;28.23;;;20.00;99.90;;;;;;5069759;28;20505;-68
2021/09/10 08:25:52;;;;;;;37.30;27.40;;;19.90;99.90;;;;;;5074257;28;20512;-69
2021/09/10 08:28:19;;;;;;;37.83;30.37;;;19.90;99.90;;;;;;5068999;28;20480;-69
2021/09/10 08:30:48;;;;;;;39.23;29.97;;;19.80;99.90;;;;;;5070416;28;20843;-69
2021/09/10 08:33:15;;;;;;;39.77;31.67;;;19.80;99.90;;;;;;5068152;28;20854;-69
2021/09/10 08:35:42;;;;;;;43.70;30.80;;;19.70;99.90;;;;;;5087701;28;20465;-69
2021/09/10 08:38:09;;;;;;;39.93;30.70;;;19.70;99.90;;;;;;5071244;28;20857;-69
2021/09/10 08:40:36;;;;;;;39.17;33.17;;;19.60;99.90;;;;;;5085776;28;20474;-68
2021/09/10 08:43:04;;;;;;;47.50;31.73;;;19.60;99.90;;;;;;5082894;28;20474;-69
2021/09/10 08:45:31;;;;;;;39.57;31.43;;;19.50;99.90;;;;;;5071585;28;20447;-68
2021/09/10 08:47:58;;;;;;;42.97;30.90;;;19.50;99.90;;;;;;5072946;28;20475;-69
2021/09/10 08:50:25;;;;;;;44.40;32.40;;;19.50;99.90;;;;;;5068043;28;20486;-69
2021/09/10 08:52:52;;;;;;;47.50;33.10;;;19.50;99.90;;;;;;5068369;28;20463;-69
2021/09/10 08:55:20;;;;;;;40.73;30.33;;;19.40;99.90;;;;;;5078750;28;20465;-69
2021/09/10 08:57:47;;;;;;;44.40;30.30;;;19.40;99.90;;;;;;5075094;28;20521;-70
2021/09/10 09:00:17;;;;;;;51.97;33.70;;;19.40;99.90;;;;;;5060088;28;20525;-68
2021/09/10 09:03:02;;;;;;;43.77;31.17;;;19.30;99.90;;;;;;5058235;28;20479;-68
2021/09/10 09:05:29;;;;;;;51.50;33.50;;;19.20;99.90;;;;;;5065864;28;21019;-71
2021/09/10 09:08:13;;;;;;;37.50;29.10;;;19.20;99.90;;;;;;5067650;28;20480;-71
2021/09/10 09:10:58;;;;;;;40.33;31.57;;;19.20;99.90;;;;;;5067979;28;20486;-69
2021/09/10 09:13:27;;;;;;;41.40;31.73;;;19.20;99.90;;;;;;5075066;28;20471;-69
2021/09/10 09:16:24;;;;;;;48.43;31.33;;;19.20;99.90;;;;;;5068170;28;20562;-69
2021/09/10 09:18:54;;;;;;;47.27;31.70;;;19.20;99.90;;;;;;5056576;28;20609;-69
2021/09/10 09:21:22;;;;;;;40.43;30.67;;;19.10;99.90;;;;;;5052371;28;20825;-69
2021/09/10 09:23:51;;;;;;;50.77;33.20;;;19.10;99.90;;;;;;5063304;28;20526;-69
2021/09/10 09:26:19;;;;;;;46.23;32.00;;;19.20;99.90;;;;;;5054734;28;20492;-69
2021/09/10 09:28:47;;;;;;;40.77;31.80;;;19.20;99.90;;;;;;5064650;28;20483;-69
2021/09/10 09:31:18;;;;;;;50.97;33.20;;;19.20;99.90;;;;;;5054825;28;20484;-70
2021/09/10 09:33:47;;;;;;;46.20;32.10;;;19.20;99.90;;;;;;5053919;28;20520;-69
2021/09/10 09:36:17;;;;;;;44.37;30.80;;;19.30;99.90;;;;;;5054767;28;20945;-69
2021/09/10 09:38:45;;;;;;;41.30;29.80;;;19.20;99.90;;;;;;5054804;28;20463;-70
2021/09/10 09:41:14;;;;;;;38.40;29.97;;;19.20;99.90;;;;;;5065422;28;20521;-69
2021/09/10 09:43:45;;;;;;;38.77;27.63;;;19.20;99.90;;;;;;5052988;28;20456;-70
2021/09/10 09:46:14;;;;;;;41.50;29.83;;;19.20;99.90;;;;;;5071988;28;20456;-70
2021/09/10 09:48:42;;;;;;;41.57;30.60;;;19.20;99.90;;;;;;5068201;28;20480;-69
2021/09/10 09:51:15;;;;;;;40.90;29.60;;;19.30;99.90;;;;;;5061157;28;20975;-70
2021/09/10 09:53:42;;;;;;;36.90;29.37;;;19.40;99.90;;;;;;5055093;28;20464;-69
2021/09/10 09:56:09;;;;;;;34.63;27.53;;;19.50;99.90;;;;;;5054597;28;20559;-69
2021/09/10 09:58:37;;;;;;;32.90;26.70;;;19.50;99.90;;;;;;5055672;28;20448;-69
2021/09/10 10:01:04;;;;;;;33.53;26.70;;;19.60;99.90;;;;;;5053693;28;20491;-69
2021/09/10 10:03:31;;;;;;;31.63;26.57;;;19.70;99.90;;;;;;5053608;28;20518;-69
2021/09/10 10:06:09;;;;;;;30.27;24.93;;;19.80;99.90;;;;;;5051259;28;20490;-69
2021/09/10 10:08:46;;;;;;;24.93;21.17;;;19.90;99.90;;;;;;5033529;28;20546;-69
2021/09/10 10:11:16;;;;;;;25.43;20.73;;;20.00;99.90;;;;;;5034206;28;20485;-70
2021/09/10 10:13:44;;;;;;;21.90;19.70;;;20.10;99.90;;;;;;5035599;28;20871;-69
2021/09/10 10:16:35;;;;;;;21.23;19.03;;;20.20;99.90;;;;;;5036341;28;20508;-69
2021/09/10 10:19:03;;;;;;;21.60;18.63;;;20.40;99.90;;;;;;5039651;28;20473;-69
2021/09/10 10:21:49;;;;;;;17.80;15.53;;;20.50;99.90;;;;;;5033504;28;20997;-69
2021/09/10 10:24:37;;;;;;;17.30;15.57;;;20.60;99.90;;;;;;5033478;28;20487;-69
2021/09/10 10:27:39;;;;;;;17.87;16.27;;;20.80;99.90;;;;;;5041441;28;20453;-69
2021/09/10 10:30:08;;;;;;;17.70;16.10;;;20.90;99.90;;;;;;5046048;28;20556;-69
2021/09/10 10:32:37;;;;;;;17.40;15.80;;;21.10;99.90;;;;;;5037882;28;20511;-69
2021/09/10 10:35:24;;;;;;;17.37;15.80;;;21.20;99.90;;;;;;5042018;28;20456;-72
2021/09/10 10:37:53;;;;;;;18.97;17.17;;;21.30;99.90;;;;;;5051366;28;20551;-71
2021/09/10 10:40:42;;;;;;;18.50;16.00;;;21.40;99.90;;;;;;5047974;28;20791;-71
2021/09/10 10:43:12;;;;;;;19.73;17.67;;;21.60;99.90;;;;;;5050647;28;20449;-72
2021/09/10 10:46:12;;;;;;;17.67;15.80;;;21.70;99.90;;;;;;5050660;28;20472;-71
2021/09/10 10:49:00;;;;;;;17.07;15.40;;;21.70;99.90;;;;;;5038566;28;20955;-72
2021/09/10 10:51:43;;;;;;;18.80;16.93;;;21.80;99.90;;;;;;5044934;28;20472;-71
2021/09/10 10:54:14;;;;;;;18.43;16.63;;;21.90;99.90;;;;;;5045553;28;20492;-72
2021/09/10 10:56:43;;;;;;;19.40;17.50;;;22.00;99.90;;;;;;5034227;28;20791;-71
2021/09/10 10:59:35;;;;;;;20.27;18.27;;;22.00;99.90;;;;;;5033069;28;20457;-72
2021/09/10 11:02:28;;;;;;;22.13;19.73;;;22.10;99.90;;;;;;5038734;28;20599;-71
2021/09/10 11:05:00;;;;;;;22.67;19.90;;;22.10;99.90;;;;;;5042303;28;20460;-68
2021/09/10 11:07:29;;;;;;;22.30;20.07;;;22.10;99.90;;;;;;5033326;28;20870;-68
2021/09/10 11:10:00;;;;;;;21.43;19.20;;;22.20;99.90;;;;;;5033589;28;20483;-69
2021/09/10 11:12:28;;;;;;;25.10;22.10;;;22.20;99.90;;;;;;5054640;28;20497;-69
2021/09/10 11:14:55;;;;;;;26.77;21.13;;;22.20;99.90;;;;;;5049374;28;20554;-69
2021/09/10 11:17:26;;;;;;;27.10;23.80;;;22.30;99.90;;;;;;5036547;28;20456;-68
2021/09/10 11:19:55;;;;;;;23.67;21.27;;;22.30;99.90;;;;;;5045169;28;20480;-68
2021/09/10 11:22:22;;;;;;;21.40;19.10;;;22.40;99.90;;;;;;5037851;28;20514;-69
2021/09/10 11:24:49;;;;;;;21.17;18.47;;;22.40;99.90;;;;;;5039629;28;20552;-69
2021/09/10 11:27:23;;;;;;;19.00;17.10;;;22.50;99.90;;;;;;5036399;28;20461;-68
2021/09/10 11:29:52;;;;;;;16.50;14.83;;;22.50;99.90;;;;;;5047506;28;20456;-68
2021/09/10 11:32:23;;;;;;;14.93;13.50;;;22.70;99.90;;;;;;5038303;28;20558;-70
2021/09/10 11:34:50;;;;;;;15.40;13.90;;;22.90;99.90;;;;;;5033616;28;20542;-70
2021/09/10 11:37:25;;;;;;;14.77;13.53;;;23.20;99.90;;;;;;5041124;28;20538;-70
2021/09/10 11:39:52;;;;;;;15.00;13.70;;;23.30;99.90;;;;;;5033583;28;21251;-71
2021/09/10 11:42:35;;;;;;;14.80;13.50;;;23.20;99.90;;;;;;5040340;28;20611;-70
2021/09/10 11:45:11;;;;;;;14.53;13.13;;;23.20;99.90;;;;;;5051188;28;20475;-70
2021/09/10 11:47:40;;;;;;;16.13;14.67;;;23.20;99.90;;;;;;5049736;28;20468;-71
2021/09/10 11:50:09;;;;;;;15.80;14.30;;;23.20;99.90;;;;;;5051963;28;20460;-71
2021/09/10 11:52:40;;;;;;;15.97;14.37;;;23.20;99.90;;;;;;5050891;28;20471;-71
2021/09/10 11:55:10;;;;;;;19.37;17.47;;;23.10;99.90;;;;;;5053119;28;20461;-71
2021/09/10 11:57:37;;;;;;;16.90;15.50;;;23.10;99.90;;;;;;5039905;28;20476;-71
2021/09/10 12:00:07;;;;;;;16.23;14.80;;;23.20;99.90;;;;;;5032101;28;20460;-71
2021/09/10 12:02:34;;;;;;;18.10;16.40;;;23.30;99.90;;;;;;5031746;28;20456;-71
2021/09/10 12:05:02;;;;;;;17.90;16.30;;;23.40;99.90;;;;;;5032555;28;20464;-71
2021/09/10 12:07:30;;;;;;;17.23;15.77;;;23.40;99.90;;;;;;5031484;28;20491;-71
2021/09/10 12:09:57;;;;;;;15.83;14.40;;;23.50;99.90;;;;;;5032854;28;20460;-71
2021/09/10 12:12:25;;;;;;;16.13;14.73;;;23.70;99.90;;;;;;5044817;28;21030;-71
2021/09/10 12:14:58;;;;;;;16.77;15.30;;;23.70;99.90;;;;;;5046504;28;20515;-71
2021/09/10 12:17:36;;;;;;;16.40;14.80;;;23.70;99.90;;;;;;5049500;28;20867;-77
2021/09/10 12:20:09;;;;;;;13.63;12.43;;;23.60;99.90;;;;;;5057376;28;20472;-77
2021/09/10 12:22:52;;;;;;;12.83;11.60;;;23.70;99.90;;;;;;5051457;28;20559;-77
2021/09/10 12:25:28;;;;;;;12.47;11.43;;;23.60;99.90;;;;;;5051692;28;20457;-77
2021/09/10 12:27:58;;;;;;;15.67;13.67;;;23.70;99.90;;;;;;5055101;28;20480;-77
2021/09/10 12:30:27;;;;;;;13.87;12.77;;;23.70;99.90;;;;;;5057840;28;20542;-77
2021/09/10 12:32:55;;;;;;;14.77;13.57;;;23.70;99.90;;;;;;5065325;28;20830;-78
2021/09/10 12:35:22;;;;;;;14.03;12.83;;;23.70;99.90;;;;;;5052150;28;20460;-77
2021/09/10 12:37:58;;;;;;;13.40;12.30;;;23.90;99.90;;;;;;5052337;28;20456;-72
2021/09/10 12:40:25;;;;;;;13.73;12.53;;;24.00;99.90;;;;;;5051362;28;20537;-72
2021/09/10 12:42:51;;;;;;;14.30;13.07;;;23.90;99.90;;;;;;5050991;28;20472;-71
2021/09/10 12:45:19;;;;;;;12.17;11.27;;;24.00;99.90;;;;;;5051756;28;20467;-71
2021/09/10 12:47:46;;;;;;;12.00;11.10;;;24.10;99.90;;;;;;5051291;28;20468;-71
2021/09/10 12:50:15;;;;;;;13.03;11.83;;;24.10;99.90;;;;;;5051322;28;20518;-71
2021/09/10 12:52:41;;;;;;;13.07;11.97;;;24.20;99.90;;;;;;5051481;28;20463;-71
2021/09/10 12:55:10;;;;;;;11.90;11.10;;;24.20;99.90;;;;;;5054537;28;20963;-72
2021/09/10 12:57:37;;;;;;;11.57;10.77;;;24.20;99.90;;;;;;5058565;28;20751;-71
2021/09/10 13:00:05;;;;;;;13.20;12.07;;;24.30;99.90;;;;;;5075276;28;20459;-72
2021/09/10 13:02:32;;;;;;;11.10;10.30;;;24.30;99.90;;;;;;5074657;28;20467;-72
2021/09/10 13:04:59;;;;;;;11.63;10.73;;;24.30;99.90;;;;;;5040477;28;20952;-72
2021/09/10 13:07:27;;;;;;;12.27;11.27;;;24.20;99.90;;;;;;5034930;28;20500;-72
2021/09/10 13:09:54;;;;;;;13.77;12.77;;;24.20;99.90;;;;;;5034737;28;20492;-72
2021/09/10 13:12:21;;;;;;;11.70;10.80;;;24.20;99.90;;;;;;5052008;28;20628;-71
2021/09/10 13:14:48;;;;;;;10.10;9.50;;;24.10;99.90;;;;;;5070398;28;20768;-71
2021/09/10 13:17:16;;;;;;;10.80;10.10;;;24.10;99.90;;;;;;5055189;28;20506;-72
2021/09/10 13:19:43;;;;;;;11.20;10.40;;;24.10;99.90;;;;;;5053990;28;20487;-72
2021/09/10 13:22:10;;;;;;;10.97;10.17;;;24.10;99.90;;;;;;5054358;28;21068;-72
2021/09/10 13:24:38;;;;;;;10.77;9.97;;;24.00;99.90;;;;;;5055092;28;20489;-72
2021/09/10 13:27:05;;;;;;;9.20;8.70;;;24.00;99.90;;;;;;5067745;28;20566;-72
2021/09/10 13:29:32;;;;;;;9.50;8.60;;;24.10;99.90;;;;;;5074687;28;20495;-72
2021/09/10 13:31:59;;;;;;;9.30;8.70;;;24.20;99.90;;;;;;5074589;28;20548;-72
2021/09/10 13:34:25;;;;;;;8.97;8.27;;;24.30;99.90;;;;;;5073804;28;20451;-72
2021/09/10 13:36:52;;;;;;;7.70;7.20;;;24.40;99.90;;;;;;5048537;28;20480;-72
2021/09/10 13:39:19;;;;;;;6.63;6.23;;;24.40;99.90;;;;;;5054605;28;20526;-72
2021/09/10 13:41:48;;;;;;;6.27;6.07;;;24.40;99.90;;;;;;5071596;28;20475;-72
2021/09/10 13:44:15;;;;;;;6.90;6.50;;;24.30;99.90;;;;;;5074536;28;20467;-72
2021/09/10 13:46:42;;;;;;;6.90;6.50;;;24.30;99.90;;;;;;5074194;28;20463;-72
2021/09/10 13:49:08;;;;;;;9.83;9.17;;;24.30;99.90;;;;;;5074546;28;20479;-72
2021/09/10 13:51:36;;;;;;;7.97;7.37;;;24.30;99.90;;;;;;5073288;28;20487;-72
2021/09/10 13:54:03;;;;;;;6.80;6.50;;;24.40;99.90;;;;;;5070974;28;20451;-72
2021/09/10 13:56:30;;;;;;;7.00;6.50;;;24.40;99.90;;;;;;5054230;28;20464;-69
2021/09/10 13:58:58;;;;;;;6.97;6.60;;;24.40;99.90;;;;;;5054017;28;20820;-69
2021/09/10 14:01:25;;;;;;;7.03;6.73;;;24.40;99.90;;;;;;5053763;28;20595;-69
2021/09/10 14:03:51;;;;;;;7.37;6.97;;;24.40;99.90;;;;;;5053224;28;20581;-69
2021/09/10 14:06:18;;;;;;;7.03;6.63;;;24.40;99.90;;;;;;5053152;28;20554;-69
2021/09/10 14:08:45;;;;;;;6.80;6.40;;;24.40;99.90;;;;;;5061281;28;20483;-69
2021/09/10 14:11:11;;;;;;;6.97;6.67;;;24.40;99.90;;;;;;5073500;28;20487;-69
2021/09/10 14:13:38;;;;;;;7.03;6.73;;;24.40;99.90;;;;;;5073270;28;20479;-69
2021/09/10 14:16:07;;;;;;;6.60;6.30;;;24.40;99.90;;;;;;5074024;28;20841;-68
2021/09/10 14:18:33;;;;;;;7.03;6.63;;;24.40;99.90;;;;;;5072899;28;20459;-68
2021/09/10 14:21:00;;;;;;;6.20;5.90;;;24.40;99.90;;;;;;5073361;28;20487;-68
2021/09/10 14:23:27;;;;;;;6.60;6.30;;;24.40;99.90;;;;;;5060600;28;20464;-69
2021/09/10 14:25:53;;;;;;;6.70;6.40;;;24.40;99.90;;;;;;5036894;28;20477;-71
2021/09/10 14:28:20;;;;;;;6.53;6.07;;;24.50;99.90;;;;;;5033422;28;20535;-69
2021/09/10 14:30:46;;;;;;;5.23;5.10;;;24.70;99.90;;;;;;5033523;28;20485;-69
2021/09/10 14:33:15;;;;;;;6.40;5.83;;;24.80;99.90;;;;;;5032596;28;21000;-69
2021/09/10 14:35:41;;;;;;;6.43;6.13;;;24.80;99.90;;;;;;5032918;28;20944;-70
2021/09/10 14:38:08;;;;;;;5.83;5.53;;;24.90;99.90;;;;;;5065623;28;20455;-67
2021/09/10 14:40:35;;;;;;;5.90;5.70;;;24.90;99.90;;;;;;5064122;28;20491;-67
2021/09/10 14:43:03;;;;;;;6.00;5.70;;;24.90;99.90;;;;;;5073054;28;20542;-68
2021/09/10 14:45:29;;;;;;;6.60;6.30;;;24.90;99.90;;;;;;5072980;28;20512;-67
2021/09/10 14:47:56;;;;;;;5.80;5.60;;;25.00;99.90;;;;;;5072350;28;20463;-69
2021/09/10 14:50:24;;;;;;;6.30;5.93;;;25.00;99.90;;;;;;5071592;28;20513;-68
2021/09/10 14:52:51;;;;;;;5.00;4.87;;;25.00;99.90;;;;;;5052572;28;20472;-68
2021/09/10 14:55:18;;;;;;;5.67;5.47;;;25.00;99.90;;;;;;5052717;28;20468;-68
2021/09/10 14:57:44;;;;;;;5.93;5.60;;;25.00;99.90;;;;;;5052433;28;20456;-68
2021/09/10 15:00:14;;;;;;;5.70;5.50;;;25.10;99.90;;;;;;5052500;28;20472;-68
2021/09/10 15:02:41;;;;;;;5.57;5.30;;;25.10;99.90;;;;;;5033429;28;20515;-68
2021/09/10 15:05:09;;;;;;;5.70;5.43;;;25.20;99.90;;;;;;5049265;28;20823;-68
2021/09/10 15:07:37;;;;;;;5.20;5.00;;;25.20;99.90;;;;;;5072478;28;20471;-68
2021/09/10 15:10:05;;;;;;;5.50;5.30;;;25.10;99.90;;;;;;5083840;28;20487;-68
2021/09/10 15:12:32;;;;;;;6.63;6.23;;;25.10;99.90;;;;;;5083450;28;20509;-68
2021/09/10 15:14:59;;;;;;;5.17;5.00;;;25.00;99.90;;;;;;5072371;28;20475;-68
2021/09/10 15:17:26;;;;;;;5.70;5.50;;;25.00;99.90;;;;;;5071786;28;20911;-68
2021/09/10 15:19:52;;;;;;;6.03;5.73;;;24.90;99.90;;;;;;5060214;28;20504;-68
2021/09/10 15:22:19;;;;;;;4.80;4.60;;;24.90;99.90;;;;;;5051776;28;20998;-68
2021/09/10 15:24:47;;;;;;;5.53;5.30;;;24.90;99.90;;;;;;5051811;28;20878;-68
2021/09/10 15:27:14;;;;;;;6.00;5.70;;;24.90;99.90;;;;;;5052099;28;20777;-68
2021/09/10 15:29:40;;;;;;;5.13;4.90;;;24.90;99.90;;;;;;5051489;28;20522;-68
2021/09/10 15:32:08;;;;;;;6.20;5.90;;;24.80;99.90;;;;;;5051806;28;20484;-69
2021/09/10 15:34:34;;;;;;;5.87;5.47;;;24.70;99.90;;;;;;5066428;28;20479;-68
2021/09/10 15:37:01;;;;;;;5.93;5.73;;;24.70;99.90;;;;;;5072500;28;20459;-68
2021/09/10 15:39:28;;;;;;;5.80;5.50;;;24.70;99.90;;;;;;5072330;28;20517;-68
2021/09/10 15:41:56;;;;;;;5.43;5.23;;;24.60;99.90;;;;;;5072002;28;20894;-68
2021/09/10 15:44:22;;;;;;;5.47;5.23;;;24.60;99.90;;;;;;5071672;28;20825;-69
2021/09/10 15:46:49;;;;;;;5.90;5.70;;;24.60;99.90;;;;;;5071689;28;20482;-68
2021/09/10 15:49:16;;;;;;;5.93;5.63;;;24.60;99.90;;;;;;5057335;28;21023;-69
2021/09/10 15:51:42;;;;;;;6.20;5.83;;;24.60;99.90;;;;;;5068994;28;20842;-69
2021/09/10 15:54:09;;;;;;;6.23;5.83;;;24.60;99.90;;;;;;5069674;28;20471;-69
2021/09/10 15:56:41;;;;;;;6.33;6.00;;;24.50;99.90;;;;;;5072563;28;20452;-69
2021/09/10 15:59:10;;;;;;;6.03;5.73;;;24.50;99.90;;;;;;5071681;28;20456;-69
2021/09/10 16:01:37;;;;;;;5.77;5.57;;;24.40;99.90;;;;;;5072318;28;20480;-69
2021/09/10 16:04:04;;;;;;;6.10;5.80;;;24.40;99.90;;;;;;5051828;28;20455;-69
2021/09/10 16:06:31;;;;;;;5.47;5.23;;;24.40;99.90;;;;;;5051380;28;20464;-69
2021/09/10 16:08:58;;;;;;;5.97;5.57;;;24.40;99.90;;;;;;5051435;28;20468;-68
2021/09/10 16:11:24;;;;;;;5.53;5.33;;;24.40;99.90;;;;;;5051641;28;20545;-68
2021/09/10 16:13:51;;;;;;;5.87;5.47;;;24.40;99.90;;;;;;5051416;28;20549;-68
2021/09/10 16:16:19;;;;;;;6.20;5.90;;;24.50;99.90;;;;;;5051611;28;20575;-69
2021/09/10 16:18:46;;;;;;;5.87;5.57;;;24.50;99.90;;;;;;5053272;28;20476;-68
2021/09/10 16:21:12;;;;;;;5.90;5.60;;;24.40;99.90;;;;;;5071359;28;20509;-67
2021/09/10 16:23:39;;;;;;;5.40;5.20;;;24.40;99.90;;;;;;5071145;28;20513;-67
2021/09/10 16:26:06;;;;;;;5.83;5.63;;;24.40;99.90;;;;;;5047469;28;20468;-68
2021/09/10 16:28:33;;;;;;;6.33;5.83;;;24.40;99.90;;;;;;5052241;28;20962;-68
2021/09/10 16:31:00;;;;;;;6.43;6.13;;;24.50;99.90;;;;;;5055317;28;20492;-68
2021/09/10 16:33:28;;;;;;;5.30;5.10;;;24.40;99.90;;;;;;5055357;28;20463;-68
2021/09/10 16:35:54;;;;;;;6.23;5.77;;;24.40;99.90;;;;;;5056204;28;20497;-68
2021/09/10 16:38:23;;;;;;;6.00;5.60;;;24.40;99.90;;;;;;5055364;28;20517;-68
2021/09/10 16:40:49;;;;;;;6.40;5.80;;;24.30;99.90;;;;;;5055033;28;20992;-68
2021/09/10 16:43:16;;;;;;;5.50;5.30;;;24.30;99.90;;;;;;5054838;28;20487;-68